sensor_id;sensor_type;location;lat;lon;timestamp;P1;durP1;ratioP1;P2;durP2;ratioP2
61356;SDS011;47227;46.752;23.576;2022-10-26T00:02:20;8.30;;;5.60;;
61356;SDS011;47227;46.752;23.576;2022-10-26T00:04:53;5.30;;;4.50;;
61356;SDS011;47227;46.752;23.576;2022-10-26T00:07:24;8.00;;;4.80;;
61356;SDS011;47227;46.752;23.576;2022-10-26T00:09:53;8.70;;;5.10;;
61356;SDS011;47227;46.752;23.576;2022-10-26T00:12:26;8.20;;;4.50;;
61356;SDS011;47227;46.752;23.576;2022-10-26T00:15:00;9.20;;;5.00;;
61356;SDS011;47227;46.752;23.576;2022-10-26T00:17:33;6.80;;;4.70;;
61356;SDS011;47227;46.752;23.576;2022-10-26T00:20:31;6.90;;;4.70;;
61356;SDS011;47227;46.752;23.576;2022-10-26T00:23:07;7.30;;;4.60;;
61356;SDS011;47227;46.752;23.576;2022-10-26T00:25:36;8.30;;;4.90;;
61356;SDS011;47227;46.752;23.576;2022-10-26T00:28:15;5.80;;;4.40;;
61356;SDS011;47227;46.752;23.576;2022-10-26T00:30:50;6.10;;;5.20;;
61356;SDS011;47227;46.752;23.576;2022-10-26T00:33:46;8.20;;;4.80;;
61356;SDS011;47227;46.752;23.576;2022-10-26T00:36:14;5.70;;;4.10;;
61356;SDS011;47227;46.752;23.576;2022-10-26T00:38:49;4.70;;;3.90;;
61356;SDS011;47227;46.752;23.576;2022-10-26T00:41:23;6.10;;;4.80;;
61356;SDS011;47227;46.752;23.576;2022-10-26T00:43:55;7.30;;;4.50;;
61356;SDS011;47227;46.752;23.576;2022-10-26T00:46:30;9.70;;;4.70;;
61356;SDS011;47227;46.752;23.576;2022-10-26T00:49:24;6.40;;;4.70;;
61356;SDS011;47227;46.752;23.576;2022-10-26T00:52:00;6.40;;;4.80;;
61356;SDS011;47227;46.752;23.576;2022-10-26T00:54:28;6.90;;;5.30;;
61356;SDS011;47227;46.752;23.576;2022-10-26T00:56:57;11.80;;;5.30;;
61356;SDS011;47227;46.752;23.576;2022-10-26T00:59:31;8.40;;;5.60;;
61356;SDS011;47227;46.752;23.576;2022-10-26T01:02:01;9.90;;;6.10;;
61356;SDS011;47227;46.752;23.576;2022-10-26T01:04:35;10.00;;;5.80;;
61356;SDS011;47227;46.752;23.576;2022-10-26T01:09:41;11.70;;;5.80;;
61356;SDS011;47227;46.752;23.576;2022-10-26T01:12:15;7.30;;;5.70;;
61356;SDS011;47227;46.752;23.576;2022-10-26T01:14:48;7.20;;;5.50;;
61356;SDS011;47227;46.752;23.576;2022-10-26T01:17:24;8.40;;;6.20;;
61356;SDS011;47227;46.752;23.576;2022-10-26T01:23:25;6.90;;;4.70;;
61356;SDS011;47227;46.752;23.576;2022-10-26T01:26:24;9.30;;;4.70;;
61356;SDS011;47227;46.752;23.576;2022-10-26T01:29:34;4.80;;;3.70;;
61356;SDS011;47227;46.752;23.576;2022-10-26T01:32:44;7.60;;;3.90;;
61356;SDS011;47227;46.752;23.576;2022-10-26T01:35:29;6.50;;;4.00;;
61356;SDS011;47227;46.752;23.576;2022-10-26T01:41:14;4.50;;;3.80;;
61356;SDS011;47227;46.752;23.576;2022-10-26T01:44:05;6.00;;;3.40;;
61356;SDS011;47227;46.752;23.576;2022-10-26T01:46:46;4.20;;;3.50;;
61356;SDS011;47227;46.752;23.576;2022-10-26T01:49:27;6.60;;;4.60;;
61356;SDS011;47227;46.752;23.576;2022-10-26T01:52:00;5.80;;;4.20;;
61356;SDS011;47227;46.752;23.576;2022-10-26T01:54:34;7.50;;;5.30;;
61356;SDS011;47227;46.752;23.576;2022-10-26T01:57:08;6.20;;;4.90;;
61356;SDS011;47227;46.752;23.576;2022-10-26T01:59:56;7.80;;;5.60;;
61356;SDS011;47227;46.752;23.576;2022-10-26T02:02:42;9.00;;;5.70;;
61356;SDS011;47227;46.752;23.576;2022-10-26T02:05:33;8.40;;;5.40;;
61356;SDS011;47227;46.752;23.576;2022-10-26T02:11:17;7.50;;;5.20;;
61356;SDS011;47227;46.752;23.576;2022-10-26T02:14:10;7.00;;;5.70;;
61356;SDS011;47227;46.752;23.576;2022-10-26T02:16:51;8.20;;;6.00;;
61356;SDS011;47227;46.752;23.576;2022-10-26T02:19:37;10.40;;;5.20;;
61356;SDS011;47227;46.752;23.576;2022-10-26T02:22:18;7.10;;;4.90;;
61356;SDS011;47227;46.752;23.576;2022-10-26T02:24:55;7.70;;;4.30;;
61356;SDS011;47227;46.752;23.576;2022-10-26T02:27:33;4.60;;;3.60;;
61356;SDS011;47227;46.752;23.576;2022-10-26T02:30:04;6.70;;;4.30;;
61356;SDS011;47227;46.752;23.576;2022-10-26T02:32:44;5.50;;;4.00;;
61356;SDS011;47227;46.752;23.576;2022-10-26T02:35:24;7.70;;;4.60;;
61356;SDS011;47227;46.752;23.576;2022-10-26T02:38:03;4.50;;;3.30;;
61356;SDS011;47227;46.752;23.576;2022-10-26T02:40:46;6.00;;;3.00;;
61356;SDS011;47227;46.752;23.576;2022-10-26T02:43:25;7.20;;;2.80;;
61356;SDS011;47227;46.752;23.576;2022-10-26T02:46:19;2.90;;;2.20;;
61356;SDS011;47227;46.752;23.576;2022-10-26T02:49:00;4.10;;;2.10;;
61356;SDS011;47227;46.752;23.576;2022-10-26T02:51:44;4.00;;;2.80;;
61356;SDS011;47227;46.752;23.576;2022-10-26T02:54:35;3.80;;;2.10;;
61356;SDS011;47227;46.752;23.576;2022-10-26T02:57:28;4.80;;;2.20;;
61356;SDS011;47227;46.752;23.576;2022-10-26T03:02:58;4.40;;;2.90;;
61356;SDS011;47227;46.752;23.576;2022-10-26T03:05:39;4.60;;;3.30;;
61356;SDS011;47227;46.752;23.576;2022-10-26T03:08:19;6.80;;;4.30;;
61356;SDS011;47227;46.752;23.576;2022-10-26T03:10:58;7.70;;;5.30;;
61356;SDS011;47227;46.752;23.576;2022-10-26T03:13:29;7.50;;;4.60;;
61356;SDS011;47227;46.752;23.576;2022-10-26T03:16:05;8.60;;;5.80;;
61356;SDS011;47227;46.752;23.576;2022-10-26T03:18:59;6.40;;;5.00;;
61356;SDS011;47227;46.752;23.576;2022-10-26T03:21:48;7.20;;;4.60;;
61356;SDS011;47227;46.752;23.576;2022-10-26T03:24:31;6.80;;;4.10;;
61356;SDS011;47227;46.752;23.576;2022-10-26T03:26:59;6.30;;;4.50;;
61356;SDS011;47227;46.752;23.576;2022-10-26T03:29:29;8.10;;;5.30;;
61356;SDS011;47227;46.752;23.576;2022-10-26T03:31:57;8.90;;;6.40;;
61356;SDS011;47227;46.752;23.576;2022-10-26T03:34:25;7.60;;;4.90;;
61356;SDS011;47227;46.752;23.576;2022-10-26T03:37:05;7.20;;;4.80;;
61356;SDS011;47227;46.752;23.576;2022-10-26T03:39:57;5.40;;;4.60;;
61356;SDS011;47227;46.752;23.576;2022-10-26T03:42:40;5.10;;;4.20;;
61356;SDS011;47227;46.752;23.576;2022-10-26T03:45:19;4.90;;;3.80;;
61356;SDS011;47227;46.752;23.576;2022-10-26T03:48:11;6.30;;;4.30;;
61356;SDS011;47227;46.752;23.576;2022-10-26T03:51:05;7.30;;;5.30;;
61356;SDS011;47227;46.752;23.576;2022-10-26T03:53:47;7.70;;;5.60;;
61356;SDS011;47227;46.752;23.576;2022-10-26T03:56:43;6.30;;;3.90;;
61356;SDS011;47227;46.752;23.576;2022-10-26T03:59:32;4.80;;;3.40;;
61356;SDS011;47227;46.752;23.576;2022-10-26T04:02:21;4.80;;;3.80;;
61356;SDS011;47227;46.752;23.576;2022-10-26T04:05:08;4.00;;;3.10;;
61356;SDS011;47227;46.752;23.576;2022-10-26T04:08:01;3.90;;;2.20;;
61356;SDS011;47227;46.752;23.576;2022-10-26T04:11:16;8.60;;;2.90;;
61356;SDS011;47227;46.752;23.576;2022-10-26T04:14:05;4.50;;;3.70;;
61356;SDS011;47227;46.752;23.576;2022-10-26T04:16:52;8.40;;;4.40;;
61356;SDS011;47227;46.752;23.576;2022-10-26T04:19:55;3.70;;;2.90;;
61356;SDS011;47227;46.752;23.576;2022-10-26T04:22:59;4.70;;;3.20;;
61356;SDS011;47227;46.752;23.576;2022-10-26T04:26:06;4.70;;;3.60;;
61356;SDS011;47227;46.752;23.576;2022-10-26T04:29:05;9.00;;;4.00;;
61356;SDS011;47227;46.752;23.576;2022-10-26T04:32:37;4.60;;;3.40;;
61356;SDS011;47227;46.752;23.576;2022-10-26T04:35:34;5.80;;;4.10;;
61356;SDS011;47227;46.752;23.576;2022-10-26T04:50:57;7.40;;;4.10;;
61356;SDS011;47227;46.752;23.576;2022-10-26T04:53:26;4.70;;;3.40;;
61356;SDS011;47227;46.752;23.576;2022-10-26T04:55:55;4.80;;;3.00;;
61356;SDS011;47227;46.752;23.576;2022-10-26T04:58:25;6.20;;;2.70;;
61356;SDS011;47227;46.752;23.576;2022-10-26T05:00:55;3.20;;;2.20;;
61356;SDS011;47227;46.752;23.576;2022-10-26T05:03:23;5.30;;;2.60;;
61356;SDS011;47227;46.752;23.576;2022-10-26T05:05:51;3.80;;;3.10;;
61356;SDS011;47227;46.752;23.576;2022-10-26T05:08:19;2.70;;;2.10;;
61356;SDS011;47227;46.752;23.576;2022-10-26T05:10:48;4.40;;;2.10;;
61356;SDS011;47227;46.752;23.576;2022-10-26T05:13:17;2.50;;;1.80;;
61356;SDS011;47227;46.752;23.576;2022-10-26T05:15:45;4.10;;;1.90;;
61356;SDS011;47227;46.752;23.576;2022-10-26T05:18:13;2.40;;;1.90;;
61356;SDS011;47227;46.752;23.576;2022-10-26T05:20:41;5.60;;;3.20;;
61356;SDS011;47227;46.752;23.576;2022-10-26T05:23:10;7.20;;;4.80;;
61356;SDS011;47227;46.752;23.576;2022-10-26T05:25:38;7.80;;;5.00;;
61356;SDS011;47227;46.752;23.576;2022-10-26T05:28:08;9.90;;;3.80;;
61356;SDS011;47227;46.752;23.576;2022-10-26T05:30:41;8.70;;;6.50;;
61356;SDS011;47227;46.752;23.576;2022-10-26T05:33:10;13.70;;;9.30;;
61356;SDS011;47227;46.752;23.576;2022-10-26T05:35:40;11.80;;;8.90;;
61356;SDS011;47227;46.752;23.576;2022-10-26T05:38:13;10.60;;;8.00;;
61356;SDS011;47227;46.752;23.576;2022-10-26T05:40:47;7.90;;;4.50;;
61356;SDS011;47227;46.752;23.576;2022-10-26T05:43:17;7.80;;;4.10;;
61356;SDS011;47227;46.752;23.576;2022-10-26T05:45:48;10.80;;;3.70;;
61356;SDS011;47227;46.752;23.576;2022-10-26T05:48:17;5.30;;;3.40;;
61356;SDS011;47227;46.752;23.576;2022-10-26T05:50:45;6.10;;;3.30;;
61356;SDS011;47227;46.752;23.576;2022-10-26T05:53:13;5.20;;;3.10;;
61356;SDS011;47227;46.752;23.576;2022-10-26T05:55:42;4.50;;;3.60;;
61356;SDS011;47227;46.752;23.576;2022-10-26T05:58:11;3.40;;;2.80;;
61356;SDS011;47227;46.752;23.576;2022-10-26T06:00:47;5.00;;;2.80;;
61356;SDS011;47227;46.752;23.576;2022-10-26T06:03:45;6.80;;;2.90;;
61356;SDS011;47227;46.752;23.576;2022-10-26T06:06:38;4.70;;;2.60;;
61356;SDS011;47227;46.752;23.576;2022-10-26T06:09:13;4.10;;;2.70;;
61356;SDS011;47227;46.752;23.576;2022-10-26T06:11:46;4.70;;;2.60;;
61356;SDS011;47227;46.752;23.576;2022-10-26T06:14:15;3.00;;;2.40;;
61356;SDS011;47227;46.752;23.576;2022-10-26T06:19:54;5.60;;;3.50;;
61356;SDS011;47227;46.752;23.576;2022-10-26T06:22:45;6.40;;;3.40;;
61356;SDS011;47227;46.752;23.576;2022-10-26T06:25:45;7.60;;;3.40;;
61356;SDS011;47227;46.752;23.576;2022-10-26T06:28:42;5.40;;;3.80;;
61356;SDS011;47227;46.752;23.576;2022-10-26T06:31:24;5.30;;;3.50;;
61356;SDS011;47227;46.752;23.576;2022-10-26T06:33:56;8.20;;;4.00;;
61356;SDS011;47227;46.752;23.576;2022-10-26T06:36:29;7.50;;;4.80;;
61356;SDS011;47227;46.752;23.576;2022-10-26T06:39:01;7.80;;;4.30;;
61356;SDS011;47227;46.752;23.576;2022-10-26T06:42:23;5.20;;;3.80;;
61356;SDS011;47227;46.752;23.576;2022-10-26T06:45:19;7.30;;;4.00;;
61356;SDS011;47227;46.752;23.576;2022-10-26T06:48:01;6.90;;;4.60;;
61356;SDS011;47227;46.752;23.576;2022-10-26T06:50:36;6.70;;;4.10;;
61356;SDS011;47227;46.752;23.576;2022-10-26T06:53:16;7.50;;;4.00;;
61356;SDS011;47227;46.752;23.576;2022-10-26T06:55:53;10.00;;;3.10;;
61356;SDS011;47227;46.752;23.576;2022-10-26T06:58:33;4.40;;;2.60;;
61356;SDS011;47227;46.752;23.576;2022-10-26T07:01:17;4.50;;;2.10;;
61356;SDS011;47227;46.752;23.576;2022-10-26T07:03:57;6.20;;;2.70;;
61356;SDS011;47227;46.752;23.576;2022-10-26T07:06:28;3.20;;;2.30;;
61356;SDS011;47227;46.752;23.576;2022-10-26T07:09:07;3.50;;;2.50;;
61356;SDS011;47227;46.752;23.576;2022-10-26T07:11:57;4.40;;;2.80;;
61356;SDS011;47227;46.752;23.576;2022-10-26T07:14:28;4.40;;;2.50;;
61356;SDS011;47227;46.752;23.576;2022-10-26T07:17:45;7.40;;;2.80;;
61356;SDS011;47227;46.752;23.576;2022-10-26T07:21:08;5.10;;;2.80;;
61356;SDS011;47227;46.752;23.576;2022-10-26T07:23:47;8.80;;;2.90;;
61356;SDS011;47227;46.752;23.576;2022-10-26T07:28:16;6.40;;;3.60;;
61356;SDS011;47227;46.752;23.576;2022-10-26T07:30:43;5.90;;;3.60;;
61356;SDS011;47227;46.752;23.576;2022-10-26T07:33:15;3.70;;;2.90;;
61356;SDS011;47227;46.752;23.576;2022-10-26T07:35:51;4.30;;;3.00;;
61356;SDS011;47227;46.752;23.576;2022-10-26T07:38:25;5.20;;;3.40;;
61356;SDS011;47227;46.752;23.576;2022-10-26T07:40:53;6.80;;;3.40;;
61356;SDS011;47227;46.752;23.576;2022-10-26T07:43:22;8.70;;;3.20;;
61356;SDS011;47227;46.752;23.576;2022-10-26T07:45:55;9.00;;;3.20;;
61356;SDS011;47227;46.752;23.576;2022-10-26T07:48:45;7.80;;;4.20;;
61356;SDS011;47227;46.752;23.576;2022-10-26T07:51:29;6.30;;;3.00;;
61356;SDS011;47227;46.752;23.576;2022-10-26T07:54:00;9.50;;;2.90;;
61356;SDS011;47227;46.752;23.576;2022-10-26T07:56:56;9.50;;;3.20;;
61356;SDS011;47227;46.752;23.576;2022-10-26T07:59:33;6.60;;;3.40;;
61356;SDS011;47227;46.752;23.576;2022-10-26T08:02:07;12.90;;;3.80;;
61356;SDS011;47227;46.752;23.576;2022-10-26T08:05:42;4.50;;;3.20;;
61356;SDS011;47227;46.752;23.576;2022-10-26T08:10:14;6.10;;;2.90;;
61356;SDS011;47227;46.752;23.576;2022-10-26T08:13:45;8.40;;;4.20;;
61356;SDS011;47227;46.752;23.576;2022-10-26T08:17:14;5.30;;;4.30;;
61356;SDS011;47227;46.752;23.576;2022-10-26T08:21:21;5.20;;;4.30;;
61356;SDS011;47227;46.752;23.576;2022-10-26T08:24:05;5.40;;;3.60;;
61356;SDS011;47227;46.752;23.576;2022-10-26T08:26:36;5.20;;;4.40;;
61356;SDS011;47227;46.752;23.576;2022-10-26T08:29:08;5.10;;;4.30;;
61356;SDS011;47227;46.752;23.576;2022-10-26T08:31:41;4.40;;;3.50;;
61356;SDS011;47227;46.752;23.576;2022-10-26T08:34:13;6.40;;;4.60;;
61356;SDS011;47227;46.752;23.576;2022-10-26T08:36:54;5.30;;;3.20;;
61356;SDS011;47227;46.752;23.576;2022-10-26T08:39:34;9.20;;;4.70;;
61356;SDS011;47227;46.752;23.576;2022-10-26T08:42:06;7.70;;;4.00;;
61356;SDS011;47227;46.752;23.576;2022-10-26T08:44:44;6.10;;;3.90;;
61356;SDS011;47227;46.752;23.576;2022-10-26T08:47:19;4.50;;;3.30;;
61356;SDS011;47227;46.752;23.576;2022-10-26T08:49:58;6.30;;;3.90;;
61356;SDS011;47227;46.752;23.576;2022-10-26T08:52:37;5.40;;;3.80;;
61356;SDS011;47227;46.752;23.576;2022-10-26T08:55:18;5.50;;;3.60;;
61356;SDS011;47227;46.752;23.576;2022-10-26T08:57:55;8.90;;;4.10;;
61356;SDS011;47227;46.752;23.576;2022-10-26T09:00:28;6.80;;;3.80;;
61356;SDS011;47227;46.752;23.576;2022-10-26T09:02:57;9.70;;;4.00;;
61356;SDS011;47227;46.752;23.576;2022-10-26T09:05:28;8.90;;;3.90;;
61356;SDS011;47227;46.752;23.576;2022-10-26T09:08:09;6.60;;;3.70;;
61356;SDS011;47227;46.752;23.576;2022-10-26T09:10:57;6.40;;;4.00;;
61356;SDS011;47227;46.752;23.576;2022-10-26T09:13:42;10.50;;;3.30;;
61356;SDS011;47227;46.752;23.576;2022-10-26T09:16:45;5.90;;;2.70;;
61356;SDS011;47227;46.752;23.576;2022-10-26T09:19:34;5.00;;;2.70;;
61356;SDS011;47227;46.752;23.576;2022-10-26T09:25:22;3.40;;;2.80;;
61356;SDS011;47227;46.752;23.576;2022-10-26T09:27:56;5.70;;;3.10;;
61356;SDS011;47227;46.752;23.576;2022-10-26T09:30:35;3.60;;;2.60;;
61356;SDS011;47227;46.752;23.576;2022-10-26T09:33:16;3.20;;;2.80;;
61356;SDS011;47227;46.752;23.576;2022-10-26T09:35:51;5.30;;;2.90;;
61356;SDS011;47227;46.752;23.576;2022-10-26T09:38:33;4.50;;;2.30;;
61356;SDS011;47227;46.752;23.576;2022-10-26T09:44:09;3.00;;;2.20;;
61356;SDS011;47227;46.752;23.576;2022-10-26T09:49:46;7.30;;;3.50;;
61356;SDS011;47227;46.752;23.576;2022-10-26T09:52:22;6.00;;;3.00;;
61356;SDS011;47227;46.752;23.576;2022-10-26T09:54:54;6.20;;;4.10;;
61356;SDS011;47227;46.752;23.576;2022-10-26T09:57:22;7.70;;;3.40;;
61356;SDS011;47227;46.752;23.576;2022-10-26T09:59:51;4.70;;;3.10;;
61356;SDS011;47227;46.752;23.576;2022-10-26T10:05:23;4.80;;;3.50;;
61356;SDS011;47227;46.752;23.576;2022-10-26T10:08:16;4.90;;;3.30;;
61356;SDS011;47227;46.752;23.576;2022-10-26T10:10:57;5.20;;;3.60;;
61356;SDS011;47227;46.752;23.576;2022-10-26T10:13:31;4.40;;;3.70;;
61356;SDS011;47227;46.752;23.576;2022-10-26T10:16:05;7.30;;;3.70;;
61356;SDS011;47227;46.752;23.576;2022-10-26T10:18:40;6.60;;;3.20;;
61356;SDS011;47227;46.752;23.576;2022-10-26T10:21:09;9.10;;;3.80;;
61356;SDS011;47227;46.752;23.576;2022-10-26T10:26:18;3.30;;;2.60;;
61356;SDS011;47227;46.752;23.576;2022-10-26T10:31:28;6.40;;;3.30;;
61356;SDS011;47227;46.752;23.576;2022-10-26T10:33:59;4.10;;;3.60;;
61356;SDS011;47227;46.752;23.576;2022-10-26T10:36:27;5.10;;;4.30;;
61356;SDS011;47227;46.752;23.576;2022-10-26T10:38:56;9.70;;;4.50;;
61356;SDS011;47227;46.752;23.576;2022-10-26T10:41:27;13.20;;;4.70;;
61356;SDS011;47227;46.752;23.576;2022-10-26T10:44:06;6.80;;;4.10;;
61356;SDS011;47227;46.752;23.576;2022-10-26T10:46:44;8.40;;;5.40;;
61356;SDS011;47227;46.752;23.576;2022-10-26T10:49:16;8.60;;;4.70;;
61356;SDS011;47227;46.752;23.576;2022-10-26T10:51:49;5.20;;;4.20;;
61356;SDS011;47227;46.752;23.576;2022-10-26T11:00:01;5.10;;;3.70;;
61356;SDS011;47227;46.752;23.576;2022-10-26T11:02:41;9.00;;;4.40;;
61356;SDS011;47227;46.752;23.576;2022-10-26T11:05:38;5.40;;;3.90;;
61356;SDS011;47227;46.752;23.576;2022-10-26T11:08:20;11.10;;;4.50;;
61356;SDS011;47227;46.752;23.576;2022-10-26T11:10:59;8.80;;;4.10;;
61356;SDS011;47227;46.752;23.576;2022-10-26T11:13:36;7.80;;;5.20;;
61356;SDS011;47227;46.752;23.576;2022-10-26T11:16:12;26.70;;;6.90;;
61356;SDS011;47227;46.752;23.576;2022-10-26T11:18:50;13.30;;;3.90;;
61356;SDS011;47227;46.752;23.576;2022-10-26T11:21:29;6.40;;;3.00;;
61356;SDS011;47227;46.752;23.576;2022-10-26T11:24:03;4.50;;;2.90;;
61356;SDS011;47227;46.752;23.576;2022-10-26T11:26:44;9.20;;;3.90;;
61356;SDS011;47227;46.752;23.576;2022-10-26T11:32:31;7.40;;;3.50;;
61356;SDS011;47227;46.752;23.576;2022-10-26T11:35:19;5.30;;;3.70;;
61356;SDS011;47227;46.752;23.576;2022-10-26T11:44:08;4.80;;;3.10;;
61356;SDS011;47227;46.752;23.576;2022-10-26T11:46:48;6.00;;;3.60;;
61356;SDS011;47227;46.752;23.576;2022-10-26T11:52:18;6.70;;;3.30;;
61356;SDS011;47227;46.752;23.576;2022-10-26T11:54:54;7.00;;;3.20;;
61356;SDS011;47227;46.752;23.576;2022-10-26T11:57:25;5.00;;;2.90;;
61356;SDS011;47227;46.752;23.576;2022-10-26T12:00:01;8.00;;;3.20;;
61356;SDS011;47227;46.752;23.576;2022-10-26T12:02:38;5.10;;;2.60;;
61356;SDS011;47227;46.752;23.576;2022-10-26T12:08:14;4.10;;;2.90;;
61356;SDS011;47227;46.752;23.576;2022-10-26T12:11:02;6.70;;;2.70;;
61356;SDS011;47227;46.752;23.576;2022-10-26T12:13:44;8.20;;;4.40;;
61356;SDS011;47227;46.752;23.576;2022-10-26T12:16:21;11.70;;;4.60;;
61356;SDS011;47227;46.752;23.576;2022-10-26T12:19:13;10.40;;;4.40;;
61356;SDS011;47227;46.752;23.576;2022-10-26T12:21:57;10.70;;;5.30;;
61356;SDS011;47227;46.752;23.576;2022-10-26T12:24:29;5.20;;;3.80;;
61356;SDS011;47227;46.752;23.576;2022-10-26T12:27:04;5.60;;;4.50;;
61356;SDS011;47227;46.752;23.576;2022-10-26T12:29:37;6.30;;;3.60;;
61356;SDS011;47227;46.752;23.576;2022-10-26T12:46:37;5.90;;;3.70;;
61356;SDS011;47227;46.752;23.576;2022-10-26T12:49:12;6.60;;;4.10;;
61356;SDS011;47227;46.752;23.576;2022-10-26T12:55:26;10.70;;;4.60;;
61356;SDS011;47227;46.752;23.576;2022-10-26T13:09:16;6.40;;;4.00;;
61356;SDS011;47227;46.752;23.576;2022-10-26T13:11:55;4.90;;;4.30;;
61356;SDS011;47227;46.752;23.576;2022-10-26T13:14:31;6.20;;;4.50;;
61356;SDS011;47227;46.752;23.576;2022-10-26T13:17:30;8.30;;;5.50;;
61356;SDS011;47227;46.752;23.576;2022-10-26T13:20:01;7.50;;;3.90;;
61356;SDS011;47227;46.752;23.576;2022-10-26T13:22:32;8.40;;;5.60;;
61356;SDS011;47227;46.752;23.576;2022-10-26T13:25:17;8.40;;;5.80;;
61356;SDS011;47227;46.752;23.576;2022-10-26T13:27:57;5.90;;;4.90;;
61356;SDS011;47227;46.752;23.576;2022-10-26T13:30:44;8.40;;;4.90;;
61356;SDS011;47227;46.752;23.576;2022-10-26T13:33:16;9.00;;;5.30;;
61356;SDS011;47227;46.752;23.576;2022-10-26T13:35:52;7.70;;;3.60;;
61356;SDS011;47227;46.752;23.576;2022-10-26T13:38:23;8.00;;;3.80;;
61356;SDS011;47227;46.752;23.576;2022-10-26T13:40:59;11.30;;;4.70;;
61356;SDS011;47227;46.752;23.576;2022-10-26T13:43:49;7.10;;;3.60;;
61356;SDS011;47227;46.752;23.576;2022-10-26T13:46:25;7.30;;;4.10;;
61356;SDS011;47227;46.752;23.576;2022-10-26T13:48:58;7.10;;;3.50;;
61356;SDS011;47227;46.752;23.576;2022-10-26T13:52:18;6.20;;;4.00;;
61356;SDS011;47227;46.752;23.576;2022-10-26T13:55:21;5.30;;;3.70;;
61356;SDS011;47227;46.752;23.576;2022-10-26T13:59:03;10.10;;;3.50;;
61356;SDS011;47227;46.752;23.576;2022-10-26T14:01:37;9.10;;;4.10;;
61356;SDS011;47227;46.752;23.576;2022-10-26T14:04:14;5.90;;;3.60;;
61356;SDS011;47227;46.752;23.576;2022-10-26T14:06:47;7.50;;;3.80;;
61356;SDS011;47227;46.752;23.576;2022-10-26T14:09:17;9.40;;;4.10;;
61356;SDS011;47227;46.752;23.576;2022-10-26T14:11:55;6.20;;;3.40;;
61356;SDS011;47227;46.752;23.576;2022-10-26T14:14:28;9.70;;;3.70;;
61356;SDS011;47227;46.752;23.576;2022-10-26T14:19:48;9.00;;;4.60;;
61356;SDS011;47227;46.752;23.576;2022-10-26T14:22:18;10.10;;;3.70;;
61356;SDS011;47227;46.752;23.576;2022-10-26T14:24:52;4.50;;;3.80;;
61356;SDS011;47227;46.752;23.576;2022-10-26T14:27:25;9.90;;;3.60;;
61356;SDS011;47227;46.752;23.576;2022-10-26T14:29:59;7.20;;;3.80;;
61356;SDS011;47227;46.752;23.576;2022-10-26T14:32:47;4.80;;;3.80;;
61356;SDS011;47227;46.752;23.576;2022-10-26T14:35:17;5.20;;;4.40;;
61356;SDS011;47227;46.752;23.576;2022-10-26T14:37:55;7.60;;;3.60;;
61356;SDS011;47227;46.752;23.576;2022-10-26T14:40:32;6.10;;;3.40;;
61356;SDS011;47227;46.752;23.576;2022-10-26T14:43:03;5.30;;;3.50;;
61356;SDS011;47227;46.752;23.576;2022-10-26T14:45:34;5.50;;;3.70;;
61356;SDS011;47227;46.752;23.576;2022-10-26T14:48:22;6.80;;;4.10;;
61356;SDS011;47227;46.752;23.576;2022-10-26T14:56:29;11.00;;;4.50;;
61356;SDS011;47227;46.752;23.576;2022-10-26T15:01:57;10.70;;;4.60;;
61356;SDS011;47227;46.752;23.576;2022-10-26T15:04:39;12.70;;;4.70;;
61356;SDS011;47227;46.752;23.576;2022-10-26T15:07:14;7.80;;;4.50;;
61356;SDS011;47227;46.752;23.576;2022-10-26T15:09:44;17.70;;;4.80;;
61356;SDS011;47227;46.752;23.576;2022-10-26T15:17:51;11.30;;;4.10;;
61356;SDS011;47227;46.752;23.576;2022-10-26T15:20:22;6.70;;;4.80;;
61356;SDS011;47227;46.752;23.576;2022-10-26T15:22:53;7.10;;;4.30;;
61356;SDS011;47227;46.752;23.576;2022-10-26T15:25:24;6.80;;;4.70;;
61356;SDS011;47227;46.752;23.576;2022-10-26T15:31:00;8.10;;;5.30;;
61356;SDS011;47227;46.752;23.576;2022-10-26T15:33:42;9.70;;;5.40;;
61356;SDS011;47227;46.752;23.576;2022-10-26T15:36:30;9.50;;;6.40;;
61356;SDS011;47227;46.752;23.576;2022-10-26T15:38:59;9.70;;;6.20;;
61356;SDS011;47227;46.752;23.576;2022-10-26T15:41:32;9.10;;;5.80;;
61356;SDS011;47227;46.752;23.576;2022-10-26T15:44:11;10.10;;;5.80;;
61356;SDS011;47227;46.752;23.576;2022-10-26T15:46:43;8.10;;;5.90;;
61356;SDS011;47227;46.752;23.576;2022-10-26T15:49:16;10.30;;;6.60;;
61356;SDS011;47227;46.752;23.576;2022-10-26T15:51:47;11.30;;;6.60;;
61356;SDS011;47227;46.752;23.576;2022-10-26T15:54:16;9.60;;;7.70;;
61356;SDS011;47227;46.752;23.576;2022-10-26T15:56:44;13.90;;;7.60;;
61356;SDS011;47227;46.752;23.576;2022-10-26T15:59:14;9.60;;;7.50;;
61356;SDS011;47227;46.752;23.576;2022-10-26T16:01:44;17.40;;;7.60;;
61356;SDS011;47227;46.752;23.576;2022-10-26T16:04:13;11.40;;;8.10;;
61356;SDS011;47227;46.752;23.576;2022-10-26T16:06:41;10.10;;;7.70;;
61356;SDS011;47227;46.752;23.576;2022-10-26T16:09:11;9.40;;;6.50;;
61356;SDS011;47227;46.752;23.576;2022-10-26T16:11:43;11.30;;;6.60;;
61356;SDS011;47227;46.752;23.576;2022-10-26T16:14:11;8.60;;;6.80;;
61356;SDS011;47227;46.752;23.576;2022-10-26T16:16:40;10.80;;;7.50;;
61356;SDS011;47227;46.752;23.576;2022-10-26T16:19:08;10.80;;;6.90;;
61356;SDS011;47227;46.752;23.576;2022-10-26T16:27:15;17.10;;;9.50;;
61356;SDS011;47227;46.752;23.576;2022-10-26T16:31:34;18.80;;;8.40;;
61356;SDS011;47227;46.752;23.576;2022-10-26T16:51:20;6.90;;;5.00;;
61356;SDS011;47227;46.752;23.576;2022-10-26T16:56:24;7.10;;;4.80;;
61356;SDS011;47227;46.752;23.576;2022-10-26T16:59:47;6.40;;;4.80;;
61356;SDS011;47227;46.752;23.576;2022-10-26T17:02:21;8.30;;;4.70;;
61356;SDS011;47227;46.752;23.576;2022-10-26T17:05:05;7.00;;;4.90;;
61356;SDS011;47227;46.752;23.576;2022-10-26T17:07:52;5.90;;;4.60;;
61356;SDS011;47227;46.752;23.576;2022-10-26T17:10:40;9.50;;;5.50;;
61356;SDS011;47227;46.752;23.576;2022-10-26T17:13:32;7.20;;;5.10;;
61356;SDS011;47227;46.752;23.576;2022-10-26T17:16:06;9.00;;;5.90;;
61356;SDS011;47227;46.752;23.576;2022-10-26T17:18:37;6.50;;;5.30;;
61356;SDS011;47227;46.752;23.576;2022-10-26T17:21:05;7.30;;;4.70;;
61356;SDS011;47227;46.752;23.576;2022-10-26T17:23:32;11.30;;;5.50;;
61356;SDS011;47227;46.752;23.576;2022-10-26T17:26:02;9.50;;;5.90;;
61356;SDS011;47227;46.752;23.576;2022-10-26T17:28:30;6.80;;;5.80;;
61356;SDS011;47227;46.752;23.576;2022-10-26T17:31:06;8.20;;;5.40;;
61356;SDS011;47227;46.752;23.576;2022-10-26T17:36:02;8.40;;;6.20;;
61356;SDS011;47227;46.752;23.576;2022-10-26T17:38:32;7.80;;;5.70;;
61356;SDS011;47227;46.752;23.576;2022-10-26T17:41:01;8.60;;;5.50;;
61356;SDS011;47227;46.752;23.576;2022-10-26T17:43:29;12.60;;;6.50;;
61356;SDS011;47227;46.752;23.576;2022-10-26T17:46:00;11.60;;;6.50;;
61356;SDS011;47227;46.752;23.576;2022-10-26T17:48:29;9.90;;;6.70;;
61356;SDS011;47227;46.752;23.576;2022-10-26T17:50:57;8.20;;;6.70;;
61356;SDS011;47227;46.752;23.576;2022-10-26T17:53:24;9.30;;;6.80;;
61356;SDS011;47227;46.752;23.576;2022-10-26T17:55:59;10.90;;;7.20;;
61356;SDS011;47227;46.752;23.576;2022-10-26T17:58:30;10.40;;;7.60;;
61356;SDS011;47227;46.752;23.576;2022-10-26T18:00:59;14.20;;;7.10;;
61356;SDS011;47227;46.752;23.576;2022-10-26T18:03:28;12.90;;;7.00;;
61356;SDS011;47227;46.752;23.576;2022-10-26T18:05:55;9.70;;;7.00;;
61356;SDS011;47227;46.752;23.576;2022-10-26T18:08:22;10.80;;;7.10;;
61356;SDS011;47227;46.752;23.576;2022-10-26T18:10:50;17.00;;;8.70;;
61356;SDS011;47227;46.752;23.576;2022-10-26T18:13:19;14.00;;;7.10;;
61356;SDS011;47227;46.752;23.576;2022-10-26T18:15:47;13.20;;;8.10;;